Data for 07/20/2005

Time Sea-Level Adjusted Pressure Absolute Pressure Temperature Relative Humidity Dew Point   
(mb) (inHg) (mb) (inHg) (C) (F) (%) (C) (F)
00:05 1017 30.03 846 24.98 18.5 65.3 39 4.4 40
00:10 1017 30.03 846 24.98 18.4 65.2 35 2.9 37.1
00:15 1017 30.03 846 24.98 18.6 65.4 36 3.3 38
00:20 1017 30.03 846 24.98 18.6 65.4 35 3.1 37.6
00:25 1017 30.03 846 24.98 18.7 65.7 34 2.7 36.8
00:30 1017 30.03 846 24.98 19.1 66.4 32 2 35.6
00:35 1017 30.03 846 24.98 19.6 67.2 32 2.6 36.7
00:40 1017 30.03 846 24.98 19.3 66.7 33 2.8 37.1
00:45 1017 30.03 846 24.98 19.2 66.5 32 2 35.7
00:50 1017 30.03 846 24.98 19.2 66.5 33 2.5 36.5
00:55 1017 30.03 846 24.98 18.9 65.9 33 2.3 36.1
01:00 1017 30.03 846 24.98 19 66.2 32 2.2 36
01:05 1017 30.03 846 24.98 18.8 65.8 34 2.8 37.1
01:10 1017 30.03 846 24.98 18.7 65.6 35 3.1 37.6
01:15 1017 30.03 846 24.98 18 64.4 36 3 37.4
01:20 1017 30.03 846 24.98 18.3 64.9 32 1.3 34.3
01:25 1017 30.03 846 24.98 18.8 65.9 31 1.6 34.8
01:30 1017 30.03 846 24.98 18.4 65.2 33 2.2 36
01:35 1017 30.03 846 24.98 18.1 64.5 35 2.3 36.2
01:40 1017 30.03 846 24.98 17.9 64.3 35 2.2 36
01:45 1017 30.03 846 24.98 17.6 63.6 36 2.5 36.5
01:50 1017 30.03 846 24.98 17.5 63.5 35 2 35.6
01:55 1017 30.03 846 24.98 17.5 63.4 35 2 35.7
02:00 1017 30.03 846 24.98 17.5 63.4 34 1.5 34.7
02:05 1017 30.03 846 24.98 17.5 63.5 35 2 35.6
02:10 1017 30.03 846 24.98 17.5 63.6 34 1.5 34.8
02:15 1017 30.03 846 24.98 17.6 63.7 35 1.9 35.4
02:20 1017 30.03 847 25.01 17.5 63.5 33 1.4 34.4
02:25 1017 30.03 847 25.01 17.7 63.8 33 1.5 34.7
02:30 1017 30.03 847 25.01 17.5 63.5 35 1.8 35.3
02:35 1017 30.03 847 25.01 17.3 63.1 34 1.6 34.8
02:40 1017 30.03 847 25.01 17.2 63 34 1.3 34.4
02:45 1017 30.03 847 25.01 17.7 63.9 35 2.3 36.2
02:50 1017 30.03 847 25.01 17.7 63.8 34 1.8 35.2
02:55 1018 30.06 847 25.01 17.4 63.3 34 1.7 35.1
03:00 1018 30.06 847 25.01 17.3 63.1 34 1.2 34.1
03:05 1018 30.06 847 25.01 17.2 63 35 1.6 34.9
03:10 1018 30.06 847 25.01 17.5 63.4 32 0.8 33.5
03:15 1018 30.06 847 25.01 17.6 63.7 33 1.2 34.2
03:20 1018 30.06 847 25.01 17.2 62.9 34 1.4 34.5
03:25 1018 30.06 847 25.01 16.8 62.3 37 2.2 36
03:30 1018 30.06 847 25.01 16.7 62.1 34 0.8 33.5
03:35 1018 30.06 847 25.01 16.8 62.2 35 1.4 34.5
03:40 1018 30.06 847 25.01 16.5 61.7 36 1.5 34.7
03:45 1018 30.06 847 25.01 16.2 61.1 37 1.6 35
03:50 1018 30.06 847 25.01 15.9 60.7 41 2.9 37.2
03:55 1018 30.06 847 25.01 15.8 60.4 39 2 35.6
04:00 1018 30.06 847 25.01 15.5 59.8 39 1.5 34.7
04:05 1018 30.06 847 25.01 15.5 59.8 38 1.3 34.4
04:10 1018 30.06 847 25.01 15.6 60.2 38 1.6 34.9
04:15 1018 30.06 847 25.01 15.6 60.1 38 1.4 34.5
04:20 1018 30.06 847 25.01 15.7 60.2 37 1.3 34.3
04:25 1018 30.06 847 25.01 15.8 60.4 38 1.4 34.6
04:30 1018 30.06 847 25.01 15.7 60.3 37 1.3 34.3
04:35 1018 30.06 847 25.01 15.8 60.4 35 0.6 33.1
04:40 1018 30.06 847 25.01 15.9 60.7 37 1.2 34.2
04:45 1018 30.06 847 25.01 15.5 59.8 38 1.3 34.3
04:50 1018 30.06 848 25.04 15.4 59.7 39 1.4 34.6
04:55 1018 30.06 848 25.04 15.7 60.2 35 0.3 32.5
05:00 1018 30.06 848 25.04 16.2 61.1 35 0.8 33.4
05:05 1018 30.06 848 25.04 16.1 61 34 0.2 32.3
05:10 1018 30.06 848 25.04 16.6 61.9 33 0.4 32.7
05:15 1018 30.06 848 25.04 16.5 61.6 33 0.5 32.8
05:20 1018 30.06 848 25.04 16.3 61.3 35 0.9 33.6
05:25 1018 30.06 848 25.04 16.1 60.9 34 0.3 32.5
05:30 1018 30.06 848 25.04 16.3 61.3 34 0.6 33.1
05:35 1018 30.06 848 25.04 16.2 61.1 34 0.2 32.4
05:40 1018 30.06 848 25.04 16.2 61.2 34 0.3 32.5
05:45 1019 30.09 848 25.04 16.1 60.9 41 3 37.4
05:50 1019 30.09 848 25.04 15.9 60.7 34 0.2 32.3
05:55 1019 30.09 848 25.04 15.8 60.5 38 1.5 34.7
06:00 1019 30.09 848 25.04 15 59 39 1.4 34.5
06:05 1019 30.09 848 25.04 14.9 58.9 40 1.5 34.6
06:10 1019 30.09 848 25.04 15.1 59.2 38 1 33.8
06:15 1019 30.09 848 25.04 15.2 59.3 38 1 33.9
06:20 1019 30.09 848 25.04 15.1 59.2 38 0.9 33.6
06:25 1019 30.09 848 25.04 15.1 59.2 38 1 33.9
06:30 1019 30.09 848 25.04 14.8 58.7 41 1.7 35.1
06:35 1019 30.09 848 25.04 14.7 58.4 38 0.7 33.3
06:40 1019 30.09 848 25.04 14.7 58.5 40 1.3 34.4
06:45 1019 30.09 848 25.04 14.9 58.9 39 1.2 34.1
06:50 1019 30.09 848 25.04 14.9 58.9 40 1.5 34.6
06:55 1019 30.09 848 25.04 15.2 59.3 38 1.1 33.9
07:00 1019 30.09 848 25.04 15.6 60 35 0.4 32.7
07:05 1019 30.09 848 25.04 15.4 59.7 40 1.9 35.5
07:10 1019 30.09 848 25.04 15.4 59.8 38 1.2 34.2
07:15 1019 30.09 848 25.04 15.8 60.4 37 1.3 34.4
07:20 1019 30.09 848 25.04 16.3 61.3 36 1.5 34.7
07:25 1019 30.09 848 25.04 17 62.5 33 0.9 33.6
07:30 1019 30.09 848 25.04 17.3 63.1 33 1.1 33.9
07:35 1019 30.09 848 25.04 17.2 62.9 38 2.8 37.1
07:40 1019 30.09 848 25.04 17.1 62.8 38 2.9 37.2
07:45 1019 30.09 848 25.04 17.4 63.2 38 2.9 37.3
07:50 1019 30.09 848 25.04 17.5 63.6 39 3.4 38.2
07:55 1019 30.09 848 25.04 17.8 64 39 3.6 38.5
08:00 1019 30.09 848 25.04 17.9 64.3 39 4 39.2
08:05 1019 30.09 848 25.04 19 66.2 35 3.2 37.7
08:10 1019 30.09 848 25.04 19.7 67.4 34 3.4 38.1
08:15 1019 30.09 848 25.04 20.1 68.2 32 3.1 37.6
08:20 1019 30.09 849 25.07 20.6 69.1 34 4.4 39.8
08:25 1019 30.09 849 25.07 21.1 70 33 4.4 39.8
08:30 1019 30.09 849 25.07 21.9 71.3 33 5 41
08:35 1019 30.09 849 25.07 22.2 72 31 4.4 39.8
08:40 1020 30.12 849 25.07 22.4 72.2 30 3.9 39.1
08:45 1020 30.12 849 25.07 22.5 72.5 29 3.8 38.9
08:50 1020 30.12 849 25.07 22.8 73 31 4.7 40.5
08:55 1020 30.12 849 25.07 22.9 73.1 30 4.8 40.6
09:00 1020 30.12 849 25.07 22.8 73 28 3.5 38.4
09:05 1020 30.12 849 25.07 22.7 72.9 28 3.2 37.8
09:10 1020 30.12 849 25.07 23.2 73.7 26 2.9 37.3
09:15 1020 30.12 849 25.07 22.5 72.5 26 2.5 36.6
09:20 1020 30.12 849 25.07 22.8 73 30 4.3 39.8
09:25 1020 30.12 849 25.07 22.6 72.6 30 4.5 40.1
09:30 1020 30.12 849 25.07 22.9 73.2 30 4.4 40
09:35 1020 30.12 849 25.07 23.2 73.8 25 2.4 36.3
09:40 1020 30.12 849 25.07 23 73.4 25 2.4 36.2
09:45 1020 30.12 849 25.07 23.2 73.7 25 2.1 35.7
09:50 1019 30.09 849 25.07 23.6 74.4 23 1.4 34.5
09:55 1019 30.09 849 25.07 23.8 74.8 21 0.6 33
10:00 1019 30.09 849 25.07 24 75.3 21 0.5 32.8
10:05 1019 30.09 849 25.07 23.8 74.8 26 3.3 37.9
10:10 1019 30.09 849 25.07 24.2 75.5 27 4.4 40
10:15 1019 30.09 849 25.07 24.4 76 24 2.8 37.1
10:20 1019 30.09 849 25.07 24.6 76.3 23 2.2 36
10:25 1019 30.09 849 25.07 25.1 77.1 21 1.6 35
10:30 1019 30.09 849 25.07 24.9 76.7 20 0.5 32.8
10:35 1019 30.09 849 25.07 24.8 76.6 20 0.8 33.5
10:40 1019 30.09 848 25.04 25.5 77.9 19 0.3 32.5
10:45 1019 30.09 848 25.04 26.2 79.2 20 1.7 35
10:50 1019 30.09 848 25.04 26.8 80.3 19 1.7 35.1
10:55 1019 30.09 848 25.04 27.7 81.9 19 2.6 36.7
11:00 1019 30.09 848 25.04 28.5 83.2 17 1.6 34.8
11:05 1019 30.09 848 25.04 28.5 83.3 16 0.2 32.4
11:10 1019 30.09 848 25.04 28.8 83.8 16 0.8 33.5
11:15 1019 30.09 848 25.04 29.7 85.5 16 1.6 34.8
11:20 1019 30.09 848 25.04 29 84.2 16 1.3 34.3
11:25 1019 30.09 848 25.04 29.1 84.3 18 2.6 36.7
11:30 1019 30.09 848 25.04 28.3 83 16 0.7 33.2
11:35 1019 30.09 848 25.04 28.5 83.3 16 0.8 33.4
11:40 1019 30.09 848 25.04 29 84.2 16 0.6 33
11:45 1019 30.09 848 25.04 29.4 85 15 0.7 33.3
11:50 1019 30.09 848 25.04 29.6 85.4 16 1.3 34.3
11:55 1019 30.09 848 25.04 30.3 86.5 15 1.1 34
12:00 1019 30.09 848 25.04 30.6 87.2 15 1.2 34.1
12:05 1019 30.09 848 25.04 31.3 88.4 15 1.9 35.4
12:10 1019 30.09 848 25.04 32 89.6 14 2.1 35.7
12:15 1019 30.09 848 25.04 31.2 88.2 15 1.5 34.6
12:20 1019 30.09 848 25.04 31.4 88.4 15 1.7 35
12:25 1019 30.09 848 25.04 31.7 89 14 1.3 34.3
12:30 1019 30.09 848 25.04 31.9 89.4 14 1.7 35.1
12:35 1019 30.09 848 25.04 31.3 88.3 15 1.7 35
12:40 1019 30.09 848 25.04 31.5 88.7 15 1.7 35
12:45 1018 30.06 848 25.04 31.6 88.8 15 1.8 35.2
12:50 1018 30.06 848 25.04 31.8 89.2 14 1.4 34.4
12:55 1018 30.06 848 25.04 32.3 90.1 13 1 33.9
13:00 1018 30.06 847 25.01 31.8 89.2 13 0.8 33.4
13:05 1018 30.06 847 25.01 31.7 89.1 14 1.7 35.1
13:10 1018 30.06 847 25.01 31.6 88.8 14 1 33.8
13:15 1018 30.06 847 25.01 31.6 88.8 15 2.1 35.8
13:20 1018 30.06 847 25.01 32 89.5 14 1.5 34.8
13:25 1018 30.06 847 25.01 31.8 89.2 13 0.3 32.6
13:30 1018 30.06 847 25.01 32.4 90.2 14 2.3 36.1
13:35 1018 30.06 847 25.01 31.9 89.5 14 1.2 34.2
13:40 1018 30.06 847 25.01 32.1 89.8 14 1.7 35.1
13:45 1018 30.06 847 25.01 32.6 90.7 12 0.3 32.6
13:50 1018 30.06 847 25.01 32.3 90.1 13 0.8 33.5
13:55 1018 30.06 847 25.01 32 89.6 13 0.3 32.6
14:00 1018 30.06 847 25.01 31.9 89.3 13 -0.1 31.8
14:05 1018 30.06 847 25.01 32 89.5 13 0.4 32.8
14:10 1018 30.06 847 25.01 31.9 89.4 12 -0.5 31.2
14:15 1018 30.06 847 25.01 32 89.5 14 1.1 33.9
14:20 1018 30.06 847 25.01 32.4 90.3 12 0.3 32.5
14:25 1018 30.06 847 25.01 32.2 89.9 12 -0.5 31.2
14:30 1018 30.06 847 25.01 31.9 89.4 12 -0.4 31.3
14:35 1018 30.06 847 25.01 32.2 90 13 0.4 32.8
14:40 1018 30.06 847 25.01 32.7 90.9 14 2.2 36
14:45 1017 30.03 847 25.01 32.9 91.3 12 -0.1 31.8
14:50 1017 30.03 847 25.01 32.9 91.2 12 -0 31.9
14:55 1017 30.03 847 25.01 33.1 91.5 12 0.5 32.8
15:00 1017 30.03 847 25.01 33 91.3 12 -0 32
15:05 1017 30.03 847 25.01 33.3 91.9 11 -0.3 31.4
15:10 1017 30.03 846 24.98 33.2 91.8 11 -0.3 31.4
15:15 1017 30.03 846 24.98 33.4 92.1 11 -0.6 31
15:20 1017 30.03 846 24.98 33.1 91.5 13 1 33.8
15:25 1017 30.03 846 24.98 32.8 91 13 1.2 34.2
15:30 1017 30.03 846 24.98 31.9 89.5 14 1.4 34.5
15:35 1017 30.03 846 24.98 32.3 90.1 13 0.4 32.8
15:40 1017 30.03 846 24.98 33 91.4 13 0.9 33.6
15:45 1017 30.03 846 24.98 33.5 92.3 12 1.1 34
15:50 1017 30.03 846 24.98 33.6 92.4 12 0.1 32.3
15:55 1017 30.03 846 24.98 33.4 92.2 11 -0.2 31.6
16:00 1017 30.03 846 24.98 33.7 92.6 12 0.7 33.2
16:05 1017 30.03 846 24.98 34.2 93.5 12 1.4 34.4
16:10 1017 30.03 846 24.98 34.2 93.5 12 1.2 34.1
16:15 1017 30.03 846 24.98 33.8 92.8 13 1.5 34.7
16:20 1017 30.03 846 24.98 33.8 92.8 12 0.8 33.4
16:25 1017 30.03 846 24.98 33.9 93 12 1 33.9
16:30 1017 30.03 846 24.98 34.1 93.3 12 0.8 33.5
16:35 1017 30.03 846 24.98 34 93.3 11 0.3 32.6
16:40 1017 30.03 846 24.98 34 93.2 12 0.7 33.2
16:45 1017 30.03 846 24.98 34.1 93.3 11 0.3 32.5
16:50 1017 30.03 846 24.98 34 93.2 11 0.3 32.5
16:55 1017 30.03 846 24.98 33.8 92.8 11 -0.1 31.7
17:00 1017 30.03 846 24.98 33.7 92.7 11 -0.1 31.8
17:05 1017 30.03 846 24.98 33.7 92.7 11 -0.2 31.7
17:10 1017 30.03 846 24.98 33.9 92.9 11 -0.6 31
17:15 1017 30.03 846 24.98 33.8 92.8 11 -0.4 31.3
17:20 1017 30.03 846 24.98 33.8 92.9 12 1.3 34.4
17:25 1017 30.03 846 24.98 33.5 92.3 11 -0.1 31.7
17:30 1017 30.03 846 24.98 33.8 92.9 12 0.5 32.9
17:35 1017 30.03 846 24.98 33.9 93 11 -0.2 31.7
17:40 1017 30.03 846 24.98 34.3 93.7 12 1.5 34.8
17:45 1016 30 846 24.98 34.4 93.8 12 1 33.9
17:50 1016 30 846 24.98 34.2 93.6 12 0.6 33.1
17:55 1016 30 846 24.98 34.2 93.6 13 1.9 35.5
18:00 1016 30 846 24.98 33.9 93 13 2.3 36.1
18:05 1016 30 846 24.98 33.8 92.8 13 2.2 35.9
18:10 1016 30 846 24.98 33.6 92.5 12 0.9 33.6
18:15 1016 30 846 24.98 33.7 92.7 12 1 33.7
18:20 1016 30 846 24.98 34.1 93.4 13 2 35.6
18:25 1016 30 846 24.98 33.8 92.8 13 2.1 35.8
18:30 1016 30 846 24.98 33.9 93 14 3.3 38
18:35 1016 30 846 24.98 33.4 92.1 14 2.5 36.4
18:40 1016 30 846 24.98 33.6 92.4 13 1.7 35
18:45 1016 30 846 24.98 33.2 91.8 12 0.7 33.2
18:50 1016 30 846 24.98 33.2 91.8 13 1 33.8
18:55 1017 30.03 846 24.98 33 91.3 12 -0.1 31.9
19:00 1016 30 846 24.98 32.6 90.7 13 0.9 33.6
19:05 1017 30.03 846 24.98 32.6 90.7 13 1 33.7
19:10 1017 30.03 846 24.98 32.4 90.3 13 0.8 33.4
19:15 1016 30 846 24.98 32.2 89.9 15 2.3 36.1
19:20 1017 30.03 846 24.98 31.8 89.2 14 1.3 34.4
19:25 1017 30.03 846 24.98 31.7 89 16 2.9 37.2
19:30 1017 30.03 846 24.98 31.6 88.8 13 0.3 32.6
19:35 1017 30.03 846 24.98 31.5 88.6 14 0.7 33.3
19:40 1017 30.03 846 24.98 31.3 88.3 13 0.1 32.1
19:45 1017 30.03 846 24.98 31.3 88.4 14 1 33.9
19:50 1017 30.03 846 24.98 31.2 88.2 15 1.5 34.6
19:55 1017 30.03 846 24.98 31.1 88 14 1 33.9
20:00 1017 30.03 846 24.98 31 87.9 15 1.4 34.5
20:05 1017 30.03 846 24.98 30.9 87.5 16 2.3 36.1
20:10 1017 30.03 846 24.98 30.6 87.1 21 6 42.8
20:15 1017 30.03 846 24.98 30.3 86.6 18 3.6 38.5
20:20 1017 30.03 846 24.98 29.3 84.8 26 8.4 47.1
20:25 1017 30.03 846 24.98 27.8 82 28 7.9 46.2
20:30 1017 30.03 846 24.98 27.3 81.2 29 8 46.5
20:35 1017 30.03 846 24.98 27.2 81 31 9 48.2
20:40 1017 30.03 846 24.98 26.9 80.4 28 7 44.6
20:45 1017 30.03 846 24.98 27 80.6 28 7.4 45.3
20:50 1017 30.03 846 24.98 26.7 80.1 29 7.6 45.7
20:55 1017 30.03 847 25.01 26.5 79.7 28 6.8 44.2
21:00 1017 30.03 847 25.01 26.6 79.8 28 6.6 43.9
21:05 1017 30.03 847 25.01 26.7 80 27 6.3 43.4
21:10 1018 30.06 847 25.01 26.8 80.3 27 6.6 43.8
21:15 1018 30.06 847 25.01 26.8 80.3 27 6.7 44
21:20 1018 30.06 847 25.01 27 80.6 26 6.1 42.9
21:25 1018 30.06 847 25.01 26.3 79.3 31 8 46.3
21:30 1018 30.06 847 25.01 25.4 77.7 29 6.3 43.3
21:35 1018 30.06 847 25.01 25.6 78.1 28 6 42.8
21:40 1018 30.06 847 25.01 25.9 78.7 24 3.9 39
21:45 1018 30.06 847 25.01 26.5 79.6 26 5.8 42.4
21:50 1018 30.06 847 25.01 26.4 79.4 24 4.3 39.8
21:55 1018 30.06 847 25.01 26.8 80.2 26 5.8 42.4
22:00 1018 30.06 848 25.04 25.9 78.5 28 6 42.8
22:05 1018 30.06 848 25.04 25.5 77.9 27 5.4 41.7
22:10 1019 30.09 848 25.04 25.3 77.6 25 3.9 39.1
22:15 1019 30.09 848 25.04 25.3 77.5 30 6.7 44
22:20 1019 30.09 848 25.04 24.6 76.3 32 6.9 44.3
22:25 1019 30.09 848 25.04 24.2 75.5 28 4.6 40.4
22:30 1019 30.09 848 25.04 24.8 76.6 26 4.1 39.3
22:35 1019 30.09 848 25.04 25 77 26 4.6 40.3
22:40 1019 30.09 848 25.04 24.4 76 30 5.8 42.4
22:45 1019 30.09 848 25.04 23 73.4 32 5.4 41.7
22:50 1019 30.09 848 25.04 22.6 72.6 28 3.3 37.9
22:55 1019 30.09 848 25.04 23.1 73.5 26 2.7 36.8
23:00 1019 30.09 848 25.04 23.6 74.5 29 4.7 40.5
23:05 1019 30.09 849 25.07 22.7 72.8 33 5.6 42
23:10 1019 30.09 849 25.07 22 71.6 28 2.8 37.1
23:15 1020 30.12 849 25.07 22.1 71.8 29 3.5 38.2
23:20 1020 30.12 849 25.07 21.6 70.9 29 2.8 37
23:25 1020 30.12 849 25.07 21.5 70.7 31 3.9 39.1
23:30 1020 30.12 849 25.07 21.4 70.4 31 3.7 38.7
23:35 1020 30.12 849 25.07 21.5 70.7 30 3.2 37.7
23:40 1020 30.12 849 25.07 21.5 70.7 30 3.4 38.1
23:45 1020 30.12 849 25.07 20.9 69.6 30 2.9 37.2
23:50 1020 30.12 849 25.07 21.4 70.5 27 1.8 35.3
23:55 1020 30.12 849 25.07 21.9 71.4 30 3.6 38.4
24:00 1020 30.12 849 25.07 20.7 69.2 38 6 42.8